createdAt,value
2017-05-21T00:00:16.077Z,63.26
2017-05-21T00:01:26.457Z,63.16
2017-05-21T00:02:35.876Z,63.26
2017-05-21T00:03:46.242Z,63.35
2017-05-21T00:04:56.600Z,63.35
2017-05-21T00:06:07.003Z,63.26
2017-05-21T00:07:17.053Z,63.26
2017-05-21T00:08:27.430Z,63.26
2017-05-21T00:09:37.795Z,63.35
2017-05-21T00:10:48.201Z,63.35
2017-05-21T00:11:58.299Z,63.16
2017-05-21T00:13:08.654Z,63.35
2017-05-21T00:14:18.413Z,63.35
2017-05-21T00:15:28.796Z,63.06
2017-05-21T00:16:39.150Z,63.06
2017-05-21T00:17:48.938Z,63.26
2017-05-21T00:18:59.320Z,63.26
2017-05-21T00:20:09.392Z,63.16
2017-05-21T00:21:19.756Z,63.26
2017-05-21T00:22:30.112Z,63.35
2017-05-21T00:23:40.527Z,63.35
2017-05-21T00:24:50.257Z,63.35
2017-05-21T00:26:00.637Z,63.16
2017-05-21T00:27:10.977Z,63.19
2017-05-21T00:28:21.345Z,63.16
2017-05-21T00:29:31.770Z,63.1
2017-05-21T00:30:41.499Z,63.19
2017-05-21T00:31:51.871Z,63.19
2017-05-21T00:33:02.221Z,63.19
2017-05-21T00:34:12.276Z,63.19
2017-05-21T00:35:22.072Z,63.29
2017-05-21T00:36:32.430Z,63.19
2017-05-21T00:37:42.792Z,63.19
2017-05-21T00:38:53.164Z,63.19
2017-05-21T00:40:03.207Z,63.19
2017-05-21T00:41:13.310Z,63.39
2017-05-21T00:42:23.352Z,63.29
2017-05-21T00:43:33.410Z,63.19
2017-05-21T00:44:43.763Z,63.1
2017-05-21T00:45:53.502Z,63.1
2017-05-21T00:47:03.937Z,63.1
2017-05-21T00:48:14.298Z,63
2017-05-21T00:49:24.667Z,62.9
2017-05-21T00:50:35.038Z,62.9
2017-05-21T00:51:45.378Z,63.1
2017-05-21T00:52:55.738Z,63.29
2017-05-21T00:54:06.097Z,63.29
2017-05-21T00:55:16.454Z,63.19
2017-05-21T00:56:26.820Z,62.9
2017-05-21T00:57:37.190Z,62.9
2017-05-21T00:58:47.671Z,63.29
2017-05-21T00:59:58.028Z,63.1
2017-05-21T01:01:08.392Z,63.19
2017-05-21T01:02:18.458Z,62.81
2017-05-21T01:03:28.521Z,63.19
2017-05-21T01:04:38.566Z,63
2017-05-21T01:05:48.921Z,63
2017-05-21T01:06:59.292Z,62.81
2017-05-21T01:08:09.638Z,62.62
2017-05-21T01:09:19.996Z,63.19
2017-05-21T01:10:30.397Z,63
2017-05-21T01:11:40.435Z,63
2017-05-21T01:12:50.799Z,62.9
2017-05-21T01:14:00.835Z,63.1
2017-05-21T01:15:10.877Z,63.19
2017-05-21T01:16:21.114Z,63.19
2017-05-21T01:17:31.141Z,63.19
2017-05-21T01:18:41.497Z,63.1
2017-05-21T01:19:51.527Z,63.1
2017-05-21T01:21:01.890Z,62.81
2017-05-21T01:22:12.301Z,62.93
2017-05-21T01:23:22.672Z,62.84
2017-05-21T01:24:33.047Z,63
2017-05-21T01:25:43.387Z,63
2017-05-21T01:26:53.748Z,62.81
2017-05-21T01:28:04.209Z,63.13
2017-05-21T01:29:14.665Z,62.9
2017-05-21T01:30:25.017Z,62.9
2017-05-21T01:31:35.374Z,63
2017-05-21T01:32:46.028Z,62.93
2017-05-21T01:33:56.613Z,63.13
2017-05-21T01:35:06.966Z,63.1
2017-05-21T01:36:17.336Z,63.03
2017-05-21T01:37:27.371Z,63
2017-05-21T01:38:37.410Z,62.9
2017-05-21T01:39:47.492Z,62.9
2017-05-21T01:40:57.851Z,63.03
2017-05-21T01:42:08.187Z,63.03
2017-05-21T01:43:18.519Z,63
2017-05-21T01:44:28.557Z,62.9
2017-05-21T01:45:38.951Z,63.1
2017-05-21T01:46:48.981Z,63.1
2017-05-21T01:47:59.316Z,62.9
2017-05-21T01:49:09.673Z,62.9
2017-05-21T01:50:19.706Z,62.93
2017-05-21T01:51:30.124Z,63.03
2017-05-21T01:52:40.154Z,62.93
2017-05-21T01:53:50.554Z,63.13
2017-05-21T01:55:00.910Z,63.22
2017-05-21T01:56:10.934Z,62.93
2017-05-21T01:57:21.049Z,63.03
2017-05-21T01:58:31.401Z,62.93
2017-05-21T01:59:41.457Z,62.93
2017-05-21T02:00:51.794Z,63.03
2017-05-21T02:02:01.826Z,63.22
2017-05-21T02:03:12.232Z,63.22
2017-05-21T02:04:22.574Z,62.93
2017-05-21T02:05:32.623Z,62.93
2017-05-21T02:06:42.668Z,63.32
2017-05-21T02:07:53.029Z,63.32
2017-05-21T02:09:03.426Z,62.93
2017-05-21T02:10:13.756Z,62.93
2017-05-21T02:11:23.781Z,63.13
2017-05-21T02:12:33.816Z,63.13
2017-05-21T02:13:44.164Z,63.13
2017-05-21T02:14:54.520Z,63.13
2017-05-21T02:16:04.860Z,63.42
2017-05-21T02:17:15.215Z,63.03
2017-05-21T02:18:25.253Z,63.03
2017-05-21T02:19:35.302Z,63.22
2017-05-21T02:20:45.660Z,63.32
2017-05-21T02:21:56.063Z,63.32
2017-05-21T02:23:06.409Z,62.93
2017-05-21T02:24:16.751Z,63.32
2017-05-21T02:25:26.790Z,62.93
2017-05-21T02:26:37.180Z,63.32
2017-05-21T02:27:47.533Z,63.22
2017-05-21T02:28:57.892Z,63.22
2017-05-21T02:30:08.471Z,63.03
2017-05-21T02:31:18.499Z,63.22
2017-05-21T02:32:28.579Z,62.93
2017-05-21T02:33:38.922Z,62.93
2017-05-21T02:34:49.039Z,63.03
2017-05-21T02:35:59.076Z,63.13
2017-05-21T02:37:09.437Z,63.13
2017-05-21T02:38:19.839Z,62.93
2017-05-21T02:39:30.179Z,63.13
2017-05-21T02:40:40.215Z,63.22
2017-05-21T02:41:50.578Z,63.42
2017-05-21T02:43:00.608Z,63.22
2017-05-21T02:44:10.654Z,63.22
2017-05-21T02:45:20.732Z,63.22
2017-05-21T02:46:30.773Z,63.51
2017-05-21T02:47:41.148Z,63.32
2017-05-21T02:48:51.490Z,63.67
2017-05-21T02:50:01.838Z,63.67
2017-05-21T02:51:12.203Z,63.96
2017-05-21T02:52:22.557Z,64.05
2017-05-21T02:53:32.578Z,64.15
2017-05-21T02:54:42.919Z,63.93
2017-05-21T02:55:53.267Z,64.02
2017-05-21T02:57:03.362Z,64.22
2017-05-21T02:58:13.725Z,63.93
2017-05-21T02:59:24.086Z,63.83
2017-05-21T03:00:34.135Z,63.93
2017-05-21T03:01:44.501Z,64.12
2017-05-21T03:32:44.849Z,60.24
2017-05-21T03:33:55.196Z,60.71
2017-05-21T03:35:05.244Z,62.24
2017-05-21T03:36:15.587Z,62.24
2017-05-21T03:37:25.624Z,62.91
2017-05-21T03:38:35.706Z,63.32
2017-05-21T03:39:45.752Z,63.89
2017-05-21T03:40:55.780Z,63.89
2017-05-21T03:42:06.126Z,63.7
2017-05-21T03:43:16.203Z,64.09
2017-05-21T03:44:25.956Z,64.22
2017-05-21T03:45:36.308Z,64.5
2017-05-21T03:46:46.677Z,64.5
2017-05-21T03:47:57.025Z,64.5
2017-05-21T03:49:07.057Z,64.25
2017-05-21T03:50:17.121Z,64.25
2017-05-21T03:51:27.165Z,64.15
2017-05-21T03:52:37.499Z,63.96
2017-05-21T03:53:47.540Z,63.86
2017-05-21T03:54:57.577Z,63.8
2017-05-21T03:56:07.971Z,63.89
2017-05-21T03:57:18.328Z,64.09
2017-05-21T03:58:28.674Z,63.99
2017-05-21T03:59:39.010Z,64.09
2017-05-21T04:00:49.360Z,63.99
2017-05-21T04:01:59.754Z,63.89
2017-05-21T04:03:10.117Z,63.8
2017-05-21T04:04:20.473Z,63.99
2017-05-21T04:05:30.821Z,64.09
2017-05-21T04:06:41.158Z,63.83
2017-05-21T04:07:51.508Z,63.83
2017-05-21T04:09:01.857Z,64.12
2017-05-21T04:10:11.594Z,64.22
2017-05-21T04:11:22.012Z,64.12
2017-05-21T04:12:32.362Z,64.22
2017-05-21T04:13:42.761Z,64.02
2017-05-21T04:14:53.107Z,64.02
2017-05-21T04:16:03.464Z,63.83
2017-05-21T04:17:13.490Z,63.83
2017-05-21T04:18:23.530Z,64.22
2017-05-21T04:19:33.884Z,63.93
2017-05-21T04:20:44.235Z,63.83
2017-05-21T04:21:54.590Z,63.83
2017-05-21T04:23:04.939Z,63.54
2017-05-21T04:24:14.991Z,63.64
2017-05-21T04:25:25.336Z,63.54
2017-05-21T04:26:35.677Z,63.45
2017-05-21T04:27:46.031Z,63.67
2017-05-21T04:28:56.079Z,63.67
2017-05-21T04:30:06.115Z,63.57
2017-05-21T04:31:16.452Z,63.67
2017-05-21T04:32:26.801Z,63.48
2017-05-21T04:33:37.376Z,63.39
2017-05-21T04:34:47.721Z,63.39
2017-05-21T04:35:58.101Z,63.39
2017-05-21T04:37:08.445Z,63.96
2017-05-21T04:38:18.792Z,63.86
2017-05-21T04:39:28.841Z,63.76
2017-05-21T04:40:38.881Z,63.67
2017-05-21T04:41:48.910Z,63.39
2017-05-21T04:42:58.672Z,63.29
2017-05-21T04:44:09.032Z,63.29
2017-05-21T04:45:19.388Z,63.1
2017-05-21T04:46:29.423Z,63.29
2017-05-21T04:47:39.771Z,63.39
2017-05-21T04:48:50.129Z,63.29
2017-05-21T04:50:00.630Z,63.29
2017-05-21T04:51:10.984Z,63.39
2017-05-21T04:52:21.328Z,63.29
2017-05-21T04:53:31.355Z,63.22
2017-05-21T04:54:41.755Z,63.19
2017-05-21T04:55:51.791Z,63.42
2017-05-21T04:57:02.141Z,63.39
2017-05-21T04:58:12.180Z,63.03
2017-05-21T04:59:22.535Z,63.19
2017-05-21T05:00:32.925Z,63.22
2017-05-21T05:01:42.330Z,63.13
2017-05-21T05:02:52.677Z,63.13
2017-05-21T05:04:03.041Z,63.32
2017-05-21T05:05:13.086Z,63.22
2017-05-21T05:06:23.478Z,63.13
2017-05-21T05:07:33.522Z,63.22
2017-05-21T05:08:43.872Z,63.32
2017-05-21T05:09:53.913Z,63.13
2017-05-21T05:11:04.302Z,63.32
2017-05-21T05:12:14.397Z,63.22
2017-05-21T05:13:24.763Z,63.19
2017-05-21T05:14:35.122Z,63.29
2017-05-21T05:15:45.159Z,63.32
2017-05-21T05:16:54.880Z,63.19
2017-05-21T05:18:04.971Z,63.29
2017-05-21T05:19:15.314Z,63.19
2017-05-21T05:20:25.045Z,63.32
2017-05-21T05:21:35.080Z,63.19
2017-05-21T05:22:45.121Z,63.39
2017-05-21T05:23:55.471Z,63.32
2017-05-21T05:25:05.533Z,63.22
2017-05-21T05:26:15.554Z,63.22
2017-05-21T05:27:25.898Z,63.22
2017-05-21T05:28:35.941Z,62.93
2017-05-21T05:29:46.291Z,62.84
2017-05-21T05:30:56.646Z,63.32
2017-05-21T05:32:06.990Z,63.22
2017-05-21T05:33:17.350Z,63.42
2017-05-21T05:34:27.705Z,63.42
2017-05-21T05:35:38.117Z,63.42
2017-05-21T05:36:47.831Z,63.13
2017-05-21T05:37:58.182Z,63.42
2017-05-21T05:39:08.523Z,63.32
2017-05-21T05:40:18.562Z,63.32
2017-05-21T05:41:28.913Z,63.13
2017-05-21T05:42:39.274Z,63.32
2017-05-21T05:43:49.645Z,63.13
2017-05-21T05:44:59.682Z,63.13
2017-05-21T05:46:09.737Z,62.84
2017-05-21T05:47:19.457Z,62.74
2017-05-21T05:48:29.822Z,63.32
2017-05-21T05:49:39.854Z,63.22
2017-05-21T05:50:50.204Z,63.32
2017-05-21T05:52:00.248Z,63.22
2017-05-21T05:53:09.959Z,62.93
2017-05-21T05:54:20.312Z,63.22
2017-05-21T05:55:30.373Z,63.06
2017-05-21T05:56:40.714Z,62.87
2017-05-21T05:57:50.760Z,63.26
2017-05-21T05:59:00.803Z,63.06
2017-05-21T06:00:10.841Z,62.59
2017-05-21T06:01:21.183Z,62.49
2017-05-21T06:02:31.522Z,62.49
2017-05-21T06:03:41.869Z,62.77
2017-05-21T06:04:52.225Z,62.1
2017-05-21T06:06:02.280Z,62.13
2017-05-21T06:07:12.659Z,62.13
2017-05-21T06:08:22.697Z,62.33
2017-05-21T06:09:32.733Z,62.33
2017-05-21T06:10:43.120Z,61.98
2017-05-21T06:11:53.151Z,61.78
2017-05-21T06:13:03.189Z,61.78
2017-05-21T06:14:12.921Z,62.16
2017-05-21T06:15:23.258Z,61.78
2017-05-21T06:16:33.597Z,61.52
2017-05-21T06:17:43.940Z,61.52
2017-05-21T06:18:54.291Z,61.52
2017-05-21T06:20:04.698Z,61.43
2017-05-21T06:21:15.064Z,61.52
2017-05-21T06:22:25.413Z,61.72
2017-05-21T06:23:35.767Z,61.91
2017-05-21T06:24:46.322Z,62.01
2017-05-21T06:25:56.355Z,61.91
2017-05-21T06:27:06.075Z,62.1
2017-05-21T06:28:16.123Z,62.39
2017-05-21T06:29:26.148Z,62.58
2017-05-21T06:30:36.166Z,62.58
2017-05-21T06:31:45.892Z,62.19
2017-05-21T06:32:56.261Z,62.29
2017-05-21T06:34:06.317Z,61.75
2017-05-21T06:35:16.672Z,61.84
2017-05-21T06:36:27.015Z,61.65
2017-05-21T06:37:37.405Z,61.3
2017-05-21T06:38:47.444Z,60.91
2017-05-21T06:39:57.789Z,60.85
2017-05-21T06:41:08.131Z,60.37
2017-05-21T06:42:18.213Z,60.75
2017-05-21T06:43:27.974Z,60.59
2017-05-21T06:44:38.327Z,60.49
2017-05-21T06:45:48.060Z,60.49
2017-05-21T06:46:58.100Z,60.88
2017-05-21T06:48:08.139Z,60.39
2017-05-21T06:49:18.198Z,60.49
2017-05-21T06:50:27.942Z,60.49
2017-05-21T06:51:38.279Z,60.62
2017-05-21T06:52:48.640Z,61
2017-05-21T06:53:59.005Z,61.1
2017-05-21T06:55:09.409Z,61
2017-05-21T06:56:19.515Z,61
2017-05-21T06:57:29.926Z,60.91
2017-05-21T06:58:40.297Z,60.91
2017-05-21T06:59:50.657Z,60.72
2017-05-21T07:01:01.059Z,60.72
2017-05-21T07:02:11.314Z,61.1
2017-05-21T07:03:21.685Z,61
2017-05-21T07:04:31.711Z,60.81
2017-05-21T07:05:42.063Z,60.91
2017-05-21T07:06:52.149Z,60.65
2017-05-21T07:08:02.518Z,60.75
2017-05-21T07:09:12.563Z,60.84
2017-05-21T07:10:22.922Z,60.94
2017-05-21T07:11:33.275Z,60.3
2017-05-21T07:12:43.320Z,60.58
2017-05-21T07:13:53.678Z,61.07
2017-05-21T07:15:04.034Z,60.58
2017-05-21T07:16:14.372Z,60.39
2017-05-21T07:17:24.732Z,60.2
2017-05-21T07:18:34.838Z,60.52
2017-05-21T07:19:45.187Z,60.03
2017-05-21T07:20:55.540Z,60.35
2017-05-21T07:22:05.898Z,59.68
2017-05-21T07:23:16.324Z,59.39
2017-05-21T07:24:26.856Z,59.42
2017-05-21T07:25:36.914Z,59.8
2017-05-21T07:26:47.270Z,58.97
2017-05-21T07:27:57.625Z,58.87
2017-05-21T07:29:07.980Z,58.61
2017-05-21T07:30:18.087Z,58.22
2017-05-21T07:31:28.157Z,58.35
2017-05-21T07:32:38.584Z,58.54
2017-05-21T07:33:48.943Z,58.54
2017-05-21T07:34:58.673Z,58.09
2017-05-21T07:36:09.076Z,57.73
2017-05-21T07:37:19.447Z,57.92
2017-05-21T07:38:29.794Z,58.21
2017-05-21T07:39:40.139Z,57.95
2017-05-21T07:40:50.489Z,57.95
2017-05-21T07:42:00.848Z,58.24
2017-05-21T07:43:11.191Z,57.95
2017-05-21T07:44:21.555Z,57.98
2017-05-21T07:45:31.912Z,57.88
2017-05-21T07:46:42.269Z,57.98
2017-05-21T07:47:52.667Z,58.11
2017-05-21T07:49:03.047Z,57.62
2017-05-21T07:50:13.406Z,57.81
2017-05-21T07:51:23.772Z,57.81
2017-05-21T07:52:34.335Z,57.91
2017-05-21T07:53:44.381Z,58.01
2017-05-21T07:54:54.739Z,58.11
2017-05-21T07:56:05.098Z,58.2
2017-05-21T07:57:15.444Z,57.91
2017-05-21T07:58:25.789Z,58.56
2017-05-21T07:59:35.829Z,58.47
2017-05-21T08:00:45.870Z,58.95
2017-05-21T08:01:56.235Z,58.85
2017-05-21T08:03:06.598Z,59.31
2017-05-21T08:04:16.966Z,59.14
2017-05-21T08:05:27.385Z,59.21
2017-05-21T08:06:37.448Z,59.23
2017-05-21T08:07:47.465Z,59.31
2017-05-21T08:08:57.510Z,58.92
2017-05-21T08:10:07.887Z,59.11
2017-05-21T08:11:18.309Z,59.05
2017-05-21T08:12:28.725Z,58.65
2017-05-21T08:13:38.754Z,58.95
2017-05-21T08:14:49.122Z,58.95
2017-05-21T08:15:59.472Z,58.47
2017-05-21T08:17:09.875Z,58.69
2017-05-21T08:18:19.919Z,58.59
2017-05-21T08:19:29.972Z,58.2
2017-05-21T08:20:40.023Z,58.59
2017-05-21T08:21:49.749Z,58.3
2017-05-21T08:23:00.139Z,58.11
2017-05-21T08:24:10.188Z,57.91
2017-05-21T08:25:20.530Z,58.04
2017-05-21T08:26:30.895Z,58.04
2017-05-21T08:27:40.934Z,57.94
2017-05-21T08:28:51.294Z,57.97
2017-05-21T08:30:01.653Z,57.48
2017-05-21T08:31:12.054Z,57.97
2017-05-21T08:32:22.401Z,57.58
2017-05-21T08:33:32.766Z,57.61
2017-05-21T08:34:42.815Z,57.8
2017-05-21T08:35:53.163Z,57.9
2017-05-21T08:37:03.551Z,57.93
2017-05-21T08:38:13.016Z,57.44
2017-05-21T08:39:23.070Z,57.25
2017-05-21T08:40:33.411Z,57.06
2017-05-21T08:41:43.779Z,57.25
2017-05-21T08:42:53.842Z,57.64
2017-05-21T08:44:03.883Z,57.73
2017-05-21T08:45:14.239Z,57.54
2017-05-21T08:46:24.606Z,57.54
2017-05-21T08:47:34.962Z,57.93
2017-05-21T08:48:45.344Z,58.41
2017-05-21T08:49:55.443Z,58
2017-05-21T08:51:05.698Z,58.09
2017-05-21T08:52:16.073Z,58.29
2017-05-21T08:53:26.124Z,58.09
2017-05-21T08:54:36.168Z,58
2017-05-21T08:55:46.595Z,57.9
2017-05-21T08:56:56.944Z,57.61
2017-05-21T08:58:07.326Z,57.51
2017-05-21T08:59:17.692Z,56.76
2017-05-21T09:00:28.053Z,56.98
2017-05-21T09:01:38.157Z,57.28
2017-05-21T09:02:48.522Z,57.08
2017-05-21T09:03:58.880Z,56.79
2017-05-21T09:05:09.241Z,57.28
2017-05-21T09:06:19.613Z,57.83
2017-05-21T09:07:29.722Z,57.73
2017-05-21T09:08:39.752Z,57.34
2017-05-21T09:09:50.114Z,57.83
2017-05-21T09:11:00.155Z,58
2017-05-21T09:12:09.905Z,58.09
2017-05-21T09:13:20.327Z,58.39
2017-05-21T09:14:30.684Z,58.74
2017-05-21T09:15:39.811Z,58.81
2017-05-21T09:16:49.854Z,58.81
2017-05-21T09:18:00.221Z,58.62
2017-05-21T09:19:10.652Z,58.06
2017-05-21T09:20:21.006Z,58.36
2017-05-21T09:21:31.381Z,58.26
2017-05-21T09:22:41.776Z,58.45
2017-05-21T09:23:52.185Z,58.06
2017-05-21T09:25:02.551Z,58.19
2017-05-21T09:26:12.279Z,57.97
2017-05-21T09:27:22.629Z,58.29
2017-05-21T09:28:33.002Z,58
2017-05-21T09:29:43.377Z,58.06
2017-05-21T09:30:53.719Z,58.16
2017-05-21T09:32:04.123Z,57.97
2017-05-21T09:33:14.175Z,58
2017-05-21T09:34:24.622Z,57.51
2017-05-21T09:35:34.365Z,57.54
2017-05-21T09:36:44.781Z,57.64
2017-05-21T09:37:55.142Z,57.64
2017-05-21T09:39:05.205Z,57.73
2017-05-21T09:40:15.563Z,58.51
2017-05-21T09:41:25.920Z,58.51
2017-05-21T09:42:36.332Z,57.64
2017-05-21T09:43:46.080Z,57.73
2017-05-21T09:44:56.440Z,57.57
2017-05-21T09:46:06.811Z,57.86
2017-05-21T09:47:17.163Z,57.86
2017-05-21T09:48:26.964Z,57.76
2017-05-21T09:49:37.027Z,57.21
2017-05-21T09:50:47.396Z,57.31
2017-05-21T09:51:57.749Z,57.21
2017-05-21T09:53:08.116Z,57.31
2017-05-21T09:54:18.500Z,57.31
2017-05-21T09:55:28.867Z,57.11
2017-05-21T09:56:38.900Z,57.5
2017-05-21T09:57:49.267Z,57.5
2017-05-21T09:58:59.046Z,57.31
2017-05-21T10:00:09.446Z,57.5
2017-05-21T10:01:19.794Z,57.89
2017-05-21T10:02:30.142Z,57.31
2017-05-21T10:03:40.200Z,57.01
2017-05-21T10:04:49.946Z,57.04
2017-05-21T10:06:00.353Z,56.75
2017-05-21T10:07:10.413Z,56.56
2017-05-21T10:08:21.050Z,56.2
2017-05-21T10:09:31.143Z,56.29
2017-05-21T10:10:40.560Z,55.8
2017-05-21T10:11:50.669Z,55.83
2017-05-21T10:13:01.035Z,56.03
2017-05-21T10:14:11.399Z,55.86
2017-05-21T10:15:21.967Z,55.57
2017-05-21T10:16:32.318Z,55.76
2017-05-21T10:17:42.354Z,55.86
2017-05-21T10:18:52.465Z,55.79
2017-05-21T10:20:02.502Z,55.89
2017-05-21T10:21:12.238Z,55.89
2017-05-21T10:22:22.623Z,55.69
2017-05-21T10:23:32.357Z,56.09
2017-05-21T10:24:42.711Z,55.79
2017-05-21T10:25:53.070Z,55.79
2017-05-21T10:27:03.457Z,55.6
2017-05-21T10:28:13.822Z,55.6
2017-05-21T10:29:23.558Z,55.99
2017-05-21T10:30:33.927Z,55.79
2017-05-21T10:31:44.288Z,55.89
2017-05-21T10:32:54.647Z,55.6
2017-05-21T10:34:05.009Z,55.89
2017-05-21T10:35:15.374Z,56.09
2017-05-21T10:36:25.785Z,56.76
2017-05-21T10:37:36.140Z,56.74
2017-05-21T10:38:46.181Z,57.1
2017-05-21T10:39:56.547Z,57.95
2017-05-21T10:41:06.274Z,57.62
2017-05-21T10:42:16.328Z,57.82
2017-05-21T10:43:26.068Z,57.72
2017-05-21T10:44:36.117Z,57.82
2017-05-21T10:45:46.479Z,57.6
2017-05-21T10:46:56.825Z,57.69
2017-05-21T10:48:06.865Z,57.6
2017-05-21T10:49:17.231Z,57.31
2017-05-21T10:50:27.610Z,57.14
2017-05-21T10:51:37.962Z,57.53
2017-05-21T10:52:48.348Z,57.72
2017-05-21T10:53:58.392Z,56.92
2017-05-21T10:55:08.420Z,56.68
2017-05-21T10:56:18.779Z,56.03
2017-05-21T10:57:29.371Z,55.76
2017-05-21T10:58:39.792Z,55.76
2017-05-21T10:59:49.862Z,55.99
2017-05-21T11:00:59.917Z,55.79
2017-05-21T11:02:09.958Z,55.43
2017-05-21T11:03:20.313Z,55.91
2017-05-21T11:04:30.356Z,55.82
2017-05-21T11:05:40.423Z,55.82
2017-05-21T11:06:50.395Z,55.82
2017-05-21T11:08:00.431Z,55.72
2017-05-21T11:09:10.475Z,55.43
2017-05-21T11:10:20.530Z,55.55
2017-05-21T11:11:30.891Z,55.65
2017-05-21T11:12:40.970Z,55.94
2017-05-21T11:13:51.328Z,56.33
2017-05-21T11:15:01.700Z,56.21
2017-05-21T11:16:12.069Z,56.3
2017-05-21T11:17:22.430Z,56.11
2017-05-21T11:18:32.787Z,56.79
2017-05-21T11:19:42.912Z,57.35
2017-05-21T11:20:52.966Z,57.06
2017-05-21T11:22:03.338Z,57.25
2017-05-21T11:23:13.706Z,57.32
2017-05-21T11:24:23.787Z,56.93
2017-05-21T11:25:33.822Z,56.93
2017-05-21T11:26:44.185Z,57.29
2017-05-21T11:27:54.289Z,57.2
2017-05-21T11:29:04.328Z,57.39
2017-05-21T11:30:14.382Z,57.49
2017-05-21T11:31:24.738Z,57.97
2017-05-21T11:32:34.782Z,57.75
2017-05-21T11:33:45.210Z,57.85
2017-05-21T11:34:55.570Z,57.95
2017-05-21T11:36:05.612Z,57.65
2017-05-21T11:37:15.967Z,57.75
2017-05-21T11:38:26.327Z,58.62
2017-05-21T11:39:36.738Z,58.59
2017-05-21T11:40:46.780Z,59.31
2017-05-21T11:41:56.827Z,58.7
2017-05-21T11:43:07.213Z,58.41
2017-05-21T11:44:17.578Z,58.15
2017-05-21T11:45:27.931Z,59.09
2017-05-21T11:46:37.979Z,58.7
2017-05-21T11:47:48.341Z,58.41
2017-05-21T11:48:58.381Z,58.25
2017-05-21T11:50:08.745Z,58.41
2017-05-21T11:51:19.153Z,58.12
2017-05-21T11:52:29.504Z,58.22
2017-05-21T11:53:39.875Z,58.05
2017-05-21T11:54:50.251Z,58.15
2017-05-21T11:56:00.857Z,57.64
2017-05-21T11:57:11.231Z,57.31
2017-05-21T11:58:21.601Z,56.92
2017-05-21T11:59:31.962Z,57.23
2017-05-21T12:00:42.321Z,56.59
2017-05-21T12:01:52.381Z,56.49
2017-05-21T12:03:02.748Z,57.07
2017-05-21T12:04:13.111Z,57.17
2017-05-21T12:05:23.444Z,57.07
2017-05-21T12:06:33.479Z,57.1
2017-05-21T12:07:43.208Z,57.29
2017-05-21T12:08:53.306Z,56.61
2017-05-21T12:10:03.690Z,57.2
2017-05-21T12:11:14.072Z,57.39
2017-05-21T12:12:24.447Z,57
2017-05-21T12:13:34.492Z,57.39
2017-05-21T12:14:44.547Z,57.95
2017-05-21T12:15:54.903Z,57.65
2017-05-21T12:17:04.652Z,57.72
2017-05-21T12:18:15.028Z,57.62
2017-05-21T12:19:25.384Z,58.5
2017-05-21T12:20:35.738Z,58.4
2017-05-21T12:21:46.099Z,58.47
2017-05-21T12:22:56.451Z,59.44
2017-05-21T12:24:06.806Z,59.77
2017-05-21T12:25:17.158Z,60.16
2017-05-21T12:26:27.538Z,60.42
2017-05-21T12:27:37.891Z,60.1
2017-05-21T12:28:47.943Z,60.2
2017-05-21T12:29:58.318Z,60.1
2017-05-21T12:31:08.679Z,59.52
2017-05-21T12:32:19.097Z,59.33
2017-05-21T12:33:29.463Z,58.45
2017-05-21T12:34:39.520Z,58.67
2017-05-21T12:35:49.580Z,58.48
2017-05-21T12:36:59.626Z,58.67
2017-05-21T12:38:10.027Z,58.67
2017-05-21T12:39:20.398Z,58.58
2017-05-21T12:40:30.753Z,58.77
2017-05-21T12:41:41.159Z,58.39
2017-05-21T12:42:51.524Z,58.09
2017-05-21T12:44:01.956Z,58.48
2017-05-21T12:45:11.994Z,58.31
2017-05-21T12:46:22.346Z,58.03
2017-05-21T12:47:32.701Z,58.41
2017-05-21T12:48:42.775Z,57.64
2017-05-21T12:49:53.200Z,57.57
2017-05-21T12:51:03.555Z,57.69
2017-05-21T12:52:13.610Z,58.54
2017-05-21T12:53:23.662Z,58.8
2017-05-21T12:54:34.019Z,59.16
2017-05-21T12:55:44.504Z,59.64
2017-05-21T12:56:54.837Z,59.23
2017-05-21T12:58:05.211Z,59.06
2017-05-21T12:59:15.569Z,58.51
2017-05-21T13:00:25.371Z,57.73
2017-05-21T13:01:35.744Z,57.73
2017-05-21T13:02:46.135Z,57.57
2017-05-21T13:03:56.182Z,57.67
2017-05-21T13:05:06.215Z,57.98
2017-05-21T13:06:16.257Z,57.67
2017-05-21T13:07:26.626Z,58.18
2017-05-21T13:08:36.970Z,58.15
2017-05-21T13:09:47.021Z,58.25
2017-05-21T13:10:57.076Z,58.05
2017-05-21T13:12:07.441Z,58.15
2017-05-21T13:13:17.861Z,58.47
2017-05-21T13:14:28.207Z,58.18
2017-05-21T13:15:38.578Z,58.28
2017-05-21T13:16:48.619Z,58.25
2017-05-21T13:17:58.679Z,58.44
2017-05-21T13:19:09.043Z,58.73
2017-05-21T13:20:19.089Z,59.28
2017-05-21T13:21:29.143Z,59.38
2017-05-21T13:22:39.178Z,60.16
2017-05-21T13:23:49.528Z,59.71
2017-05-21T13:24:59.587Z,60.3
2017-05-21T13:26:09.961Z,60.55
2017-05-21T13:27:20.305Z,60.75
2017-05-21T13:28:30.677Z,60.82
2017-05-21T13:29:40.729Z,60.91
2017-05-21T13:30:51.091Z,60.3
2017-05-21T13:32:01.465Z,59.84
2017-05-21T13:33:11.810Z,59.84
2017-05-21T13:34:22.402Z,59.69
2017-05-21T13:35:32.770Z,59.56
2017-05-21T13:36:42.816Z,59.78
2017-05-21T13:37:52.851Z,59.69
2017-05-21T13:39:03.216Z,59.78
2017-05-21T13:40:13.261Z,59.59
2017-05-21T13:41:23.624Z,59.59
2017-05-21T13:42:34.050Z,59.59
2017-05-21T13:43:44.421Z,59.75
2017-05-21T13:44:54.772Z,59.39
2017-05-21T13:46:05.329Z,59.59
2017-05-21T13:47:15.691Z,59.78
2017-05-21T13:48:26.051Z,59.49
2017-05-21T13:49:36.425Z,59.2
2017-05-21T13:50:46.793Z,59.23
2017-05-21T13:51:57.155Z,58.94
2017-05-21T13:53:07.521Z,59.33
2017-05-21T13:54:17.585Z,59.33
2017-05-21T13:55:27.637Z,58.48
2017-05-21T13:56:37.976Z,58.19
2017-05-21T13:57:48.010Z,58.41
2017-05-21T13:58:58.367Z,58.41
2017-05-21T14:00:08.812Z,58.22
2017-05-21T14:01:18.855Z,58.15
2017-05-21T14:02:29.260Z,58.44
2017-05-21T14:03:39.641Z,58.44
2017-05-21T14:04:49.991Z,58.15
2017-05-21T14:06:00.352Z,58.15
2017-05-21T14:07:10.697Z,58.34
2017-05-21T14:08:20.814Z,58.44
2017-05-21T14:09:30.854Z,58.83
2017-05-21T14:10:41.428Z,59.41
2017-05-21T14:11:51.784Z,59.09
2017-05-21T14:13:01.871Z,59.09
2017-05-21T14:14:12.227Z,59.38
2017-05-21T14:15:22.574Z,58.8
2017-05-21T14:16:32.950Z,60.06
2017-05-21T14:17:43.373Z,59.87
2017-05-21T14:18:53.739Z,59.67
2017-05-21T14:20:03.794Z,59.67
2017-05-21T14:21:14.138Z,59.84
2017-05-21T14:22:24.500Z,59.64
2017-05-21T14:23:34.852Z,59.74
2017-05-21T14:24:45.213Z,59.84
2017-05-21T14:25:54.943Z,59.84
2017-05-21T14:27:05.302Z,59.52
2017-05-21T14:28:15.411Z,59.61
2017-05-21T14:29:25.462Z,59.71
2017-05-21T14:30:35.827Z,59.71
2017-05-21T14:31:46.068Z,59.52
2017-05-21T14:32:56.446Z,59.91
2017-05-21T14:34:06.804Z,59.61
2017-05-21T14:35:16.829Z,59.91
2017-05-21T14:36:27.207Z,59.71
2017-05-21T14:37:37.265Z,59.52
2017-05-21T14:38:47.312Z,59.52
2017-05-21T14:39:57.677Z,59.61
2017-05-21T14:41:08.077Z,59.71
2017-05-21T14:42:18.446Z,59.91
2017-05-21T14:43:28.809Z,59.61
2017-05-21T14:44:38.866Z,59.71
2017-05-21T14:45:48.608Z,59.61
2017-05-21T14:46:59.031Z,60.1
2017-05-21T14:48:09.096Z,60
2017-05-21T14:49:19.137Z,59.91
2017-05-21T14:50:29.187Z,59.91
2017-05-21T14:51:39.555Z,60.1
2017-05-21T14:52:49.617Z,59.81
2017-05-21T14:53:59.987Z,60.2
2017-05-21T14:55:10.035Z,60.49
2017-05-21T14:56:20.385Z,60.39
2017-05-21T14:57:30.795Z,60.3
2017-05-21T14:58:40.826Z,60.49
2017-05-21T14:59:50.563Z,60.39
2017-05-21T15:01:00.935Z,60.49
2017-05-21T15:02:10.695Z,60.39
2017-05-21T15:03:20.783Z,60.68
2017-05-21T15:04:30.507Z,60.58
2017-05-21T15:05:40.873Z,60.49
2017-05-21T15:06:50.919Z,60.49
2017-05-21T15:08:01.287Z,60.85
2017-05-21T15:09:11.641Z,60.55
2017-05-21T15:10:21.992Z,60.55
2017-05-21T15:11:32.339Z,60.94
2017-05-21T15:12:42.671Z,60.85
2017-05-21T15:13:52.716Z,60.94
2017-05-21T15:15:02.767Z,60.55
2017-05-21T15:16:12.822Z,60.27
2017-05-21T15:17:23.221Z,60.46
2017-05-21T15:18:33.581Z,60.36
2017-05-21T15:19:43.951Z,60.3
2017-05-21T15:20:54.330Z,60.3
2017-05-21T15:22:04.705Z,60.58
2017-05-21T15:23:14.751Z,60.36
2017-05-21T15:24:24.816Z,60.94
2017-05-21T15:25:34.856Z,61.04
2017-05-21T15:26:45.213Z,60.94
2017-05-21T15:27:55.589Z,60.65
2017-05-21T15:29:05.968Z,60.75
2017-05-21T15:30:16.333Z,60.94
2017-05-21T15:31:26.675Z,61.04
2017-05-21T15:32:36.467Z,60.55
2017-05-21T15:33:46.550Z,60.82
2017-05-21T15:34:56.910Z,60.82
2017-05-21T15:36:06.962Z,60.72
2017-05-21T15:37:17.320Z,60.62
2017-05-21T15:38:27.721Z,60.72
2017-05-21T15:39:37.766Z,60.62